sensor_id;sensor_type;location;lat;lon;timestamp;temperature;humidity
8664;DHT22;4369;47.842;13.096;2023-08-17T00:02:19;18.90;99.90
8664;DHT22;4369;47.842;13.096;2023-08-17T00:04:46;18.90;99.90
8664;DHT22;4369;47.842;13.096;2023-08-17T00:07:13;18.90;99.90
8664;DHT22;4369;47.842;13.096;2023-08-17T00:09:40;18.90;99.90
8664;DHT22;4369;47.842;13.096;2023-08-17T00:12:07;18.90;99.90
8664;DHT22;4369;47.842;13.096;2023-08-17T00:14:34;18.80;99.90
8664;DHT22;4369;47.842;13.096;2023-08-17T00:17:03;18.80;99.90
8664;DHT22;4369;47.842;13.096;2023-08-17T00:19:30;18.70;99.90
8664;DHT22;4369;47.842;13.096;2023-08-17T00:21:57;18.70;99.90
8664;DHT22;4369;47.842;13.096;2023-08-17T00:24:24;18.60;99.90
8664;DHT22;4369;47.842;13.096;2023-08-17T00:26:51;18.60;99.90
8664;DHT22;4369;47.842;13.096;2023-08-17T00:29:17;18.60;99.90
8664;DHT22;4369;47.842;13.096;2023-08-17T00:31:44;18.60;99.90
8664;DHT22;4369;47.842;13.096;2023-08-17T00:34:12;18.60;99.90
8664;DHT22;4369;47.842;13.096;2023-08-17T00:36:39;18.60;99.90
8664;DHT22;4369;47.842;13.096;2023-08-17T00:39:06;18.60;99.90
8664;DHT22;4369;47.842;13.096;2023-08-17T00:41:33;18.50;99.90
8664;DHT22;4369;47.842;13.096;2023-08-17T00:44:00;18.60;99.90
8664;DHT22;4369;47.842;13.096;2023-08-17T00:46:27;18.50;99.90
8664;DHT22;4369;47.842;13.096;2023-08-17T00:48:55;18.40;99.90
8664;DHT22;4369;47.842;13.096;2023-08-17T00:51:23;18.40;99.90
8664;DHT22;4369;47.842;13.096;2023-08-17T00:53:51;18.40;99.90
8664;DHT22;4369;47.842;13.096;2023-08-17T00:56:19;18.40;99.90
8664;DHT22;4369;47.842;13.096;2023-08-17T00:58:46;18.40;99.90
8664;DHT22;4369;47.842;13.096;2023-08-17T01:01:13;18.30;99.90
8664;DHT22;4369;47.842;13.096;2023-08-17T01:03:40;18.30;99.90
8664;DHT22;4369;47.842;13.096;2023-08-17T01:06:08;18.30;99.90
8664;DHT22;4369;47.842;13.096;2023-08-17T01:08:36;18.30;99.90
8664;DHT22;4369;47.842;13.096;2023-08-17T01:11:10;18.30;99.90
8664;DHT22;4369;47.842;13.096;2023-08-17T01:13:44;18.30;99.90
8664;DHT22;4369;47.842;13.096;2023-08-17T01:16:24;18.20;99.90
8664;DHT22;4369;47.842;13.096;2023-08-17T01:18:52;18.20;99.90
8664;DHT22;4369;47.842;13.096;2023-08-17T01:21:21;18.20;99.90
8664;DHT22;4369;47.842;13.096;2023-08-17T01:23:52;18.20;99.90
8664;DHT22;4369;47.842;13.096;2023-08-17T01:26:19;18.20;99.90
8664;DHT22;4369;47.842;13.096;2023-08-17T01:28:46;18.20;99.90
8664;DHT22;4369;47.842;13.096;2023-08-17T01:31:19;18.20;99.90
8664;DHT22;4369;47.842;13.096;2023-08-17T01:33:49;18.20;99.90
8664;DHT22;4369;47.842;13.096;2023-08-17T01:36:20;18.20;99.90
8664;DHT22;4369;47.842;13.096;2023-08-17T01:38:52;18.20;99.90
8664;DHT22;4369;47.842;13.096;2023-08-17T01:41:22;18.20;99.90
8664;DHT22;4369;47.842;13.096;2023-08-17T01:43:50;18.20;99.90
8664;DHT22;4369;47.842;13.096;2023-08-17T01:46:17;18.20;99.90
8664;DHT22;4369;47.842;13.096;2023-08-17T01:48:45;18.10;99.90
8664;DHT22;4369;47.842;13.096;2023-08-17T01:51:17;18.10;99.90
8664;DHT22;4369;47.842;13.096;2023-08-17T01:53:44;18.10;99.90
8664;DHT22;4369;47.842;13.096;2023-08-17T01:56:13;18.10;99.90
8664;DHT22;4369;47.842;13.096;2023-08-17T01:58:40;18.10;99.90
8664;DHT22;4369;47.842;13.096;2023-08-17T02:01:07;18.00;99.90
8664;DHT22;4369;47.842;13.096;2023-08-17T02:03:34;18.00;99.90
8664;DHT22;4369;47.842;13.096;2023-08-17T02:06:01;17.90;99.90
8664;DHT22;4369;47.842;13.096;2023-08-17T02:08:29;17.90;99.90
8664;DHT22;4369;47.842;13.096;2023-08-17T02:10:56;17.90;99.90
8664;DHT22;4369;47.842;13.096;2023-08-17T02:13:24;17.90;99.90
8664;DHT22;4369;47.842;13.096;2023-08-17T02:15:52;17.90;99.90
8664;DHT22;4369;47.842;13.096;2023-08-17T02:18:19;17.90;99.90
8664;DHT22;4369;47.842;13.096;2023-08-17T02:20:46;17.90;99.90
8664;DHT22;4369;47.842;13.096;2023-08-17T02:23:13;17.90;99.90
8664;DHT22;4369;47.842;13.096;2023-08-17T02:25:40;17.80;99.90
8664;DHT22;4369;47.842;13.096;2023-08-17T02:28:07;17.80;99.90
8664;DHT22;4369;47.842;13.096;2023-08-17T02:30:35;17.80;99.90
8664;DHT22;4369;47.842;13.096;2023-08-17T02:33:03;17.80;99.90
8664;DHT22;4369;47.842;13.096;2023-08-17T02:35:30;17.80;99.90
8664;DHT22;4369;47.842;13.096;2023-08-17T02:37:56;17.70;99.90
8664;DHT22;4369;47.842;13.096;2023-08-17T02:40:24;17.70;99.90
8664;DHT22;4369;47.842;13.096;2023-08-17T02:42:50;17.70;99.90
8664;DHT22;4369;47.842;13.096;2023-08-17T02:45:17;17.70;99.90
8664;DHT22;4369;47.842;13.096;2023-08-17T02:47:45;17.70;99.90
8664;DHT22;4369;47.842;13.096;2023-08-17T02:50:12;17.70;99.90
8664;DHT22;4369;47.842;13.096;2023-08-17T02:52:40;17.70;99.90
8664;DHT22;4369;47.842;13.096;2023-08-17T02:55:07;17.60;99.90
8664;DHT22;4369;47.842;13.096;2023-08-17T02:57:34;17.60;99.90
8664;DHT22;4369;47.842;13.096;2023-08-17T03:00:01;17.50;99.90
8664;DHT22;4369;47.842;13.096;2023-08-17T03:02:28;17.50;99.90
8664;DHT22;4369;47.842;13.096;2023-08-17T03:04:56;17.50;99.90
8664;DHT22;4369;47.842;13.096;2023-08-17T03:07:23;17.50;99.90
8664;DHT22;4369;47.842;13.096;2023-08-17T03:09:49;17.50;99.90
8664;DHT22;4369;47.842;13.096;2023-08-17T03:12:16;17.50;99.90
8664;DHT22;4369;47.842;13.096;2023-08-17T03:14:43;17.50;99.90
8664;DHT22;4369;47.842;13.096;2023-08-17T03:17:10;17.50;99.90
8664;DHT22;4369;47.842;13.096;2023-08-17T03:19:37;17.50;99.90
8664;DHT22;4369;47.842;13.096;2023-08-17T03:22:05;17.50;99.90
8664;DHT22;4369;47.842;13.096;2023-08-17T03:24:32;17.40;99.90
8664;DHT22;4369;47.842;13.096;2023-08-17T03:26:59;17.40;99.90
8664;DHT22;4369;47.842;13.096;2023-08-17T03:29:26;17.40;99.90
8664;DHT22;4369;47.842;13.096;2023-08-17T03:31:52;17.30;99.90
8664;DHT22;4369;47.842;13.096;2023-08-17T03:34:19;17.30;99.90
8664;DHT22;4369;47.842;13.096;2023-08-17T03:36:46;17.40;99.90
8664;DHT22;4369;47.842;13.096;2023-08-17T03:39:14;17.40;99.90
8664;DHT22;4369;47.842;13.096;2023-08-17T03:41:42;17.40;99.90
8664;DHT22;4369;47.842;13.096;2023-08-17T03:44:08;17.30;99.90
8664;DHT22;4369;47.842;13.096;2023-08-17T03:46:35;17.30;99.90
8664;DHT22;4369;47.842;13.096;2023-08-17T03:49:02;17.30;99.90
8664;DHT22;4369;47.842;13.096;2023-08-17T03:51:29;17.30;99.90
8664;DHT22;4369;47.842;13.096;2023-08-17T03:53:56;17.30;99.90
8664;DHT22;4369;47.842;13.096;2023-08-17T03:56:24;17.30;99.90
8664;DHT22;4369;47.842;13.096;2023-08-17T03:58:53;17.30;99.90
8664;DHT22;4369;47.842;13.096;2023-08-17T04:01:20;17.30;99.90
8664;DHT22;4369;47.842;13.096;2023-08-17T04:03:47;17.30;99.90
8664;DHT22;4369;47.842;13.096;2023-08-17T04:06:14;17.30;99.90
8664;DHT22;4369;47.842;13.096;2023-08-17T04:08:40;17.30;99.90
8664;DHT22;4369;47.842;13.096;2023-08-17T04:11:07;17.30;99.90
8664;DHT22;4369;47.842;13.096;2023-08-17T04:13:35;17.30;99.90
8664;DHT22;4369;47.842;13.096;2023-08-17T04:16:02;17.20;99.90
8664;DHT22;4369;47.842;13.096;2023-08-17T04:18:29;17.20;99.90
8664;DHT22;4369;47.842;13.096;2023-08-17T04:20:56;17.20;99.90
8664;DHT22;4369;47.842;13.096;2023-08-17T04:23:23;17.20;99.90
8664;DHT22;4369;47.842;13.096;2023-08-17T04:25:50;17.30;99.90
8664;DHT22;4369;47.842;13.096;2023-08-17T04:28:17;17.30;99.90
8664;DHT22;4369;47.842;13.096;2023-08-17T04:30:45;17.30;99.90
8664;DHT22;4369;47.842;13.096;2023-08-17T04:33:12;17.30;99.90
8664;DHT22;4369;47.842;13.096;2023-08-17T04:35:39;17.30;99.90
8664;DHT22;4369;47.842;13.096;2023-08-17T04:38:06;17.30;99.90
8664;DHT22;4369;47.842;13.096;2023-08-17T04:40:33;17.30;99.90
8664;DHT22;4369;47.842;13.096;2023-08-17T04:43:00;17.30;99.90
8664;DHT22;4369;47.842;13.096;2023-08-17T04:45:27;17.30;99.90
8664;DHT22;4369;47.842;13.096;2023-08-17T04:47:55;17.30;99.90
8664;DHT22;4369;47.842;13.096;2023-08-17T04:50:22;17.40;99.90
8664;DHT22;4369;47.842;13.096;2023-08-17T04:52:49;17.30;99.90
8664;DHT22;4369;47.842;13.096;2023-08-17T04:55:15;17.30;99.90
8664;DHT22;4369;47.842;13.096;2023-08-17T04:57:42;17.30;99.90
8664;DHT22;4369;47.842;13.096;2023-08-17T05:00:10;17.40;99.90
8664;DHT22;4369;47.842;13.096;2023-08-17T05:02:38;17.40;99.90
8664;DHT22;4369;47.842;13.096;2023-08-17T05:05:09;17.50;99.90
8664;DHT22;4369;47.842;13.096;2023-08-17T05:07:36;17.50;99.90
8664;DHT22;4369;47.842;13.096;2023-08-17T05:10:03;17.50;99.90
8664;DHT22;4369;47.842;13.096;2023-08-17T05:12:30;17.60;99.90
8664;DHT22;4369;47.842;13.096;2023-08-17T05:14:57;17.60;99.90
8664;DHT22;4369;47.842;13.096;2023-08-17T05:17:24;17.70;99.90
8664;DHT22;4369;47.842;13.096;2023-08-17T05:19:51;17.70;99.90
8664;DHT22;4369;47.842;13.096;2023-08-17T05:22:19;17.70;99.90
8664;DHT22;4369;47.842;13.096;2023-08-17T05:24:46;17.80;99.90
8664;DHT22;4369;47.842;13.096;2023-08-17T05:27:13;17.80;99.90
8664;DHT22;4369;47.842;13.096;2023-08-17T05:29:40;17.90;99.90
8664;DHT22;4369;47.842;13.096;2023-08-17T05:32:07;17.90;99.90
8664;DHT22;4369;47.842;13.096;2023-08-17T05:34:34;18.10;99.90
8664;DHT22;4369;47.842;13.096;2023-08-17T05:37:01;18.20;99.90
8664;DHT22;4369;47.842;13.096;2023-08-17T05:39:30;18.30;99.90
8664;DHT22;4369;47.842;13.096;2023-08-17T05:41:56;18.50;99.90
8664;DHT22;4369;47.842;13.096;2023-08-17T05:44:23;18.70;99.90
8664;DHT22;4369;47.842;13.096;2023-08-17T05:46:50;18.90;99.90
8664;DHT22;4369;47.842;13.096;2023-08-17T05:49:17;19.00;99.90
8664;DHT22;4369;47.842;13.096;2023-08-17T05:51:44;19.10;99.90
8664;DHT22;4369;47.842;13.096;2023-08-17T05:54:12;19.30;99.90
8664;DHT22;4369;47.842;13.096;2023-08-17T05:56:40;19.40;99.90
8664;DHT22;4369;47.842;13.096;2023-08-17T05:59:10;19.60;99.90
8664;DHT22;4369;47.842;13.096;2023-08-17T06:01:37;19.70;99.90
8664;DHT22;4369;47.842;13.096;2023-08-17T06:04:04;19.70;99.90
8664;DHT22;4369;47.842;13.096;2023-08-17T06:06:31;19.80;99.90
8664;DHT22;4369;47.842;13.096;2023-08-17T06:08:59;19.70;99.90
8664;DHT22;4369;47.842;13.096;2023-08-17T06:11:26;19.80;99.90
8664;DHT22;4369;47.842;13.096;2023-08-17T06:13:54;19.70;99.90
8664;DHT22;4369;47.842;13.096;2023-08-17T06:16:22;19.60;99.90
8664;DHT22;4369;47.842;13.096;2023-08-17T06:18:49;19.60;99.90
8664;DHT22;4369;47.842;13.096;2023-08-17T06:21:16;19.70;99.90
8664;DHT22;4369;47.842;13.096;2023-08-17T06:23:43;19.70;99.90
8664;DHT22;4369;47.842;13.096;2023-08-17T06:26:10;19.80;99.90
8664;DHT22;4369;47.842;13.096;2023-08-17T06:28:37;19.90;99.90
8664;DHT22;4369;47.842;13.096;2023-08-17T06:31:05;20.00;99.90
8664;DHT22;4369;47.842;13.096;2023-08-17T06:33:33;20.10;99.90
8664;DHT22;4369;47.842;13.096;2023-08-17T06:36:00;20.10;99.90
8664;DHT22;4369;47.842;13.096;2023-08-17T06:38:27;20.10;99.90
8664;DHT22;4369;47.842;13.096;2023-08-17T06:40:53;20.10;99.90
8664;DHT22;4369;47.842;13.096;2023-08-17T06:43:20;20.20;99.90
8664;DHT22;4369;47.842;13.096;2023-08-17T06:45:47;20.30;99.90
8664;DHT22;4369;47.842;13.096;2023-08-17T06:48:15;20.40;99.90
8664;DHT22;4369;47.842;13.096;2023-08-17T06:50:43;20.40;99.90
8664;DHT22;4369;47.842;13.096;2023-08-17T06:53:10;20.50;99.90
8664;DHT22;4369;47.842;13.096;2023-08-17T06:55:37;20.50;99.90
8664;DHT22;4369;47.842;13.096;2023-08-17T06:58:04;20.50;99.90
8664;DHT22;4369;47.842;13.096;2023-08-17T07:00:30;20.70;99.90
8664;DHT22;4369;47.842;13.096;2023-08-17T07:02:57;20.70;99.90
8664;DHT22;4369;47.842;13.096;2023-08-17T07:05:26;20.90;99.90
8664;DHT22;4369;47.842;13.096;2023-08-17T07:07:53;20.90;99.90
8664;DHT22;4369;47.842;13.096;2023-08-17T07:10:21;21.00;99.90
8664;DHT22;4369;47.842;13.096;2023-08-17T07:12:47;21.10;99.90
8664;DHT22;4369;47.842;13.096;2023-08-17T07:15:14;21.20;99.90
8664;DHT22;4369;47.842;13.096;2023-08-17T07:17:41;21.30;99.90
8664;DHT22;4369;47.842;13.096;2023-08-17T07:20:09;21.40;99.90
8664;DHT22;4369;47.842;13.096;2023-08-17T07:22:38;21.40;99.90
8664;DHT22;4369;47.842;13.096;2023-08-17T07:25:05;21.50;99.90
8664;DHT22;4369;47.842;13.096;2023-08-17T07:27:34;21.60;99.90
8664;DHT22;4369;47.842;13.096;2023-08-17T07:30:01;21.60;99.90
8664;DHT22;4369;47.842;13.096;2023-08-17T07:32:28;21.70;99.90
8664;DHT22;4369;47.842;13.096;2023-08-17T07:34:55;21.80;99.90
8664;DHT22;4369;47.842;13.096;2023-08-17T07:37:21;21.90;99.90
8664;DHT22;4369;47.842;13.096;2023-08-17T07:39:50;22.00;99.90
8664;DHT22;4369;47.842;13.096;2023-08-17T07:42:17;22.10;99.90
8664;DHT22;4369;47.842;13.096;2023-08-17T07:44:44;22.10;99.90
8664;DHT22;4369;47.842;13.096;2023-08-17T07:47:10;22.20;99.90
8664;DHT22;4369;47.842;13.096;2023-08-17T07:49:37;22.20;99.90
8664;DHT22;4369;47.842;13.096;2023-08-17T07:52:04;22.30;99.90
8664;DHT22;4369;47.842;13.096;2023-08-17T07:54:31;22.50;99.90
8664;DHT22;4369;47.842;13.096;2023-08-17T07:57:00;22.60;99.90
8664;DHT22;4369;47.842;13.096;2023-08-17T07:59:28;22.80;99.90
8664;DHT22;4369;47.842;13.096;2023-08-17T08:01:55;22.80;99.90
8664;DHT22;4369;47.842;13.096;2023-08-17T08:04:22;22.90;99.90
8664;DHT22;4369;47.842;13.096;2023-08-17T08:06:49;23.00;99.90
8664;DHT22;4369;47.842;13.096;2023-08-17T08:09:16;23.20;99.90
8664;DHT22;4369;47.842;13.096;2023-08-17T08:11:43;23.30;99.90
8664;DHT22;4369;47.842;13.096;2023-08-17T08:14:11;23.30;99.90
8664;DHT22;4369;47.842;13.096;2023-08-17T08:16:38;23.30;99.90
8664;DHT22;4369;47.842;13.096;2023-08-17T08:19:05;23.30;99.90
8664;DHT22;4369;47.842;13.096;2023-08-17T08:21:32;23.40;99.90
8664;DHT22;4369;47.842;13.096;2023-08-17T08:23:58;23.40;99.90
8664;DHT22;4369;47.842;13.096;2023-08-17T08:26:25;23.50;99.90
8664;DHT22;4369;47.842;13.096;2023-08-17T08:28:52;23.60;99.90
8664;DHT22;4369;47.842;13.096;2023-08-17T08:31:20;23.60;99.90
8664;DHT22;4369;47.842;13.096;2023-08-17T08:33:47;23.70;99.90
8664;DHT22;4369;47.842;13.096;2023-08-17T08:36:14;23.70;99.90
8664;DHT22;4369;47.842;13.096;2023-08-17T08:38:41;23.80;99.90
8664;DHT22;4369;47.842;13.096;2023-08-17T08:41:08;23.90;99.90
8664;DHT22;4369;47.842;13.096;2023-08-17T08:43:36;23.90;99.90
8664;DHT22;4369;47.842;13.096;2023-08-17T08:46:03;24.00;99.90
8664;DHT22;4369;47.842;13.096;2023-08-17T08:48:32;24.10;99.90
8664;DHT22;4369;47.842;13.096;2023-08-17T08:51:00;24.10;99.90
8664;DHT22;4369;47.842;13.096;2023-08-17T08:53:31;24.20;99.90
8664;DHT22;4369;47.842;13.096;2023-08-17T08:56:00;24.20;99.90
8664;DHT22;4369;47.842;13.096;2023-08-17T08:58:27;24.20;92.50
8664;DHT22;4369;47.842;13.096;2023-08-17T09:00:57;24.30;99.90
8664;DHT22;4369;47.842;13.096;2023-08-17T09:03:25;24.40;99.90
8664;DHT22;4369;47.842;13.096;2023-08-17T09:05:55;24.50;99.90
8664;DHT22;4369;47.842;13.096;2023-08-17T09:08:27;24.60;99.90
8664;DHT22;4369;47.842;13.096;2023-08-17T09:10:54;24.70;99.90
8664;DHT22;4369;47.842;13.096;2023-08-17T09:13:21;24.80;99.90
8664;DHT22;4369;47.842;13.096;2023-08-17T09:15:48;24.80;99.90
8664;DHT22;4369;47.842;13.096;2023-08-17T09:18:16;24.80;70.00
8664;DHT22;4369;47.842;13.096;2023-08-17T09:20:44;24.90;54.80
8664;DHT22;4369;47.842;13.096;2023-08-17T09:23:13;24.80;14.90
8664;DHT22;4369;47.842;13.096;2023-08-17T09:25:41;24.90;22.70
8664;DHT22;4369;47.842;13.096;2023-08-17T09:28:09;25.00;1.00
8664;DHT22;4369;47.842;13.096;2023-08-17T09:30:50;25.20;99.90
8664;DHT22;4369;47.842;13.096;2023-08-17T09:33:18;25.20;1.00
8664;DHT22;4369;47.842;13.096;2023-08-17T09:35:45;25.40;1.00
8664;DHT22;4369;47.842;13.096;2023-08-17T09:38:13;25.50;1.00
8664;DHT22;4369;47.842;13.096;2023-08-17T09:40:40;25.60;1.00
8664;DHT22;4369;47.842;13.096;2023-08-17T09:43:08;25.70;99.90
8664;DHT22;4369;47.842;13.096;2023-08-17T09:45:36;25.70;99.90
8664;DHT22;4369;47.842;13.096;2023-08-17T09:48:04;25.80;99.90
8664;DHT22;4369;47.842;13.096;2023-08-17T09:50:31;26.10;1.00
8664;DHT22;4369;47.842;13.096;2023-08-17T09:52:58;26.20;99.90
8664;DHT22;4369;47.842;13.096;2023-08-17T09:55:26;26.40;99.90
8664;DHT22;4369;47.842;13.096;2023-08-17T09:57:54;26.50;99.90
8664;DHT22;4369;47.842;13.096;2023-08-17T10:00:21;26.50;99.90
8664;DHT22;4369;47.842;13.096;2023-08-17T10:02:50;26.50;99.90
8664;DHT22;4369;47.842;13.096;2023-08-17T10:05:19;26.60;99.90
8664;DHT22;4369;47.842;13.096;2023-08-17T10:07:49;26.90;99.90
8664;DHT22;4369;47.842;13.096;2023-08-17T10:10:22;27.10;1.00
8664;DHT22;4369;47.842;13.096;2023-08-17T10:12:57;27.00;99.90
8664;DHT22;4369;47.842;13.096;2023-08-17T10:15:25;27.10;99.90
8664;DHT22;4369;47.842;13.096;2023-08-17T10:18:02;27.10;87.50
8664;DHT22;4369;47.842;13.096;2023-08-17T10:20:34;27.20;7.90
8664;DHT22;4369;47.842;13.096;2023-08-17T10:23:07;27.30;6.30
8664;DHT22;4369;47.842;13.096;2023-08-17T10:25:36;27.50;59.10
8664;DHT22;4369;47.842;13.096;2023-08-17T10:28:06;27.70;7.90
8664;DHT22;4369;47.842;13.096;2023-08-17T10:30:34;27.90;99.90
8664;DHT22;4369;47.842;13.096;2023-08-17T10:33:02;28.10;87.60
8664;DHT22;4369;47.842;13.096;2023-08-17T10:35:30;28.30;86.90
8664;DHT22;4369;47.842;13.096;2023-08-17T10:37:58;28.50;54.20
8664;DHT22;4369;47.842;13.096;2023-08-17T10:40:26;28.30;1.00
8664;DHT22;4369;47.842;13.096;2023-08-17T10:42:54;28.60;6.40
8664;DHT22;4369;47.842;13.096;2023-08-17T10:45:30;28.80;72.60
8664;DHT22;4369;47.842;13.096;2023-08-17T10:48:27;29.00;1.00
8664;DHT22;4369;47.842;13.096;2023-08-17T10:51:02;29.20;1.00
8664;DHT22;4369;47.842;13.096;2023-08-17T10:53:35;29.30;1.00
8664;DHT22;4369;47.842;13.096;2023-08-17T10:56:07;29.50;1.00
8664;DHT22;4369;47.842;13.096;2023-08-17T10:58:34;29.60;1.00
8664;DHT22;4369;47.842;13.096;2023-08-17T11:01:03;29.70;1.00
8664;DHT22;4369;47.842;13.096;2023-08-17T11:03:30;29.80;1.00
8664;DHT22;4369;47.842;13.096;2023-08-17T11:06:14;29.90;1.00
8664;DHT22;4369;47.842;13.096;2023-08-17T11:08:51;29.90;1.00
8664;DHT22;4369;47.842;13.096;2023-08-17T11:11:20;30.10;1.00
8664;DHT22;4369;47.842;13.096;2023-08-17T11:13:48;30.10;1.00
8664;DHT22;4369;47.842;13.096;2023-08-17T11:16:17;30.40;1.00
8664;DHT22;4369;47.842;13.096;2023-08-17T11:18:45;30.50;1.00
8664;DHT22;4369;47.842;13.096;2023-08-17T11:21:12;30.60;1.00
8664;DHT22;4369;47.842;13.096;2023-08-17T11:23:40;30.60;1.00
8664;DHT22;4369;47.842;13.096;2023-08-17T11:26:08;30.80;1.00
8664;DHT22;4369;47.842;13.096;2023-08-17T11:28:35;30.90;1.00
8664;DHT22;4369;47.842;13.096;2023-08-17T11:31:04;30.90;1.00
8664;DHT22;4369;47.842;13.096;2023-08-17T11:33:34;31.10;1.00
8664;DHT22;4369;47.842;13.096;2023-08-17T11:36:02;31.20;1.00
8664;DHT22;4369;47.842;13.096;2023-08-17T11:38:31;31.20;1.00
8664;DHT22;4369;47.842;13.096;2023-08-17T11:40:58;31.30;1.00
8664;DHT22;4369;47.842;13.096;2023-08-17T11:43:26;31.30;1.00
8664;DHT22;4369;47.842;13.096;2023-08-17T11:45:54;31.50;1.00
8664;DHT22;4369;47.842;13.096;2023-08-17T11:48:22;31.60;1.00
8664;DHT22;4369;47.842;13.096;2023-08-17T11:50:51;31.70;1.00
8664;DHT22;4369;47.842;13.096;2023-08-17T11:53:18;31.90;1.00
8664;DHT22;4369;47.842;13.096;2023-08-17T11:55:45;32.00;1.00
8664;DHT22;4369;47.842;13.096;2023-08-17T11:58:12;32.00;1.00
8664;DHT22;4369;47.842;13.096;2023-08-17T12:00:40;32.10;1.00
8664;DHT22;4369;47.842;13.096;2023-08-17T12:03:08;32.20;1.00
8664;DHT22;4369;47.842;13.096;2023-08-17T12:05:35;32.30;1.00
8664;DHT22;4369;47.842;13.096;2023-08-17T12:08:03;32.30;1.00
8664;DHT22;4369;47.842;13.096;2023-08-17T12:10:31;32.40;1.00
8664;DHT22;4369;47.842;13.096;2023-08-17T12:12:58;32.50;1.00
8664;DHT22;4369;47.842;13.096;2023-08-17T12:15:30;32.60;1.00
8664;DHT22;4369;47.842;13.096;2023-08-17T12:17:59;32.60;1.00
8664;DHT22;4369;47.842;13.096;2023-08-17T12:20:26;32.50;1.00
8664;DHT22;4369;47.842;13.096;2023-08-17T12:22:53;32.40;1.00
8664;DHT22;4369;47.842;13.096;2023-08-17T12:25:23;32.50;1.00
8664;DHT22;4369;47.842;13.096;2023-08-17T12:27:50;32.60;1.00
8664;DHT22;4369;47.842;13.096;2023-08-17T12:30:27;32.70;1.00
8664;DHT22;4369;47.842;13.096;2023-08-17T12:32:54;32.90;1.00
8664;DHT22;4369;47.842;13.096;2023-08-17T12:35:21;33.10;1.00
8664;DHT22;4369;47.842;13.096;2023-08-17T12:37:50;33.20;1.00
8664;DHT22;4369;47.842;13.096;2023-08-17T12:40:17;33.10;1.00
8664;DHT22;4369;47.842;13.096;2023-08-17T12:42:45;33.20;1.00
8664;DHT22;4369;47.842;13.096;2023-08-17T12:45:12;33.40;1.00
8664;DHT22;4369;47.842;13.096;2023-08-17T12:47:39;33.50;1.00
8664;DHT22;4369;47.842;13.096;2023-08-17T12:50:07;33.60;1.00
8664;DHT22;4369;47.842;13.096;2023-08-17T12:52:34;33.90;1.00
8664;DHT22;4369;47.842;13.096;2023-08-17T12:55:01;34.00;1.00
8664;DHT22;4369;47.842;13.096;2023-08-17T12:57:28;34.20;1.00
8664;DHT22;4369;47.842;13.096;2023-08-17T12:59:56;34.60;1.00
8664;DHT22;4369;47.842;13.096;2023-08-17T13:02:23;35.10;1.00
8664;DHT22;4369;47.842;13.096;2023-08-17T13:04:50;35.10;1.00
8664;DHT22;4369;47.842;13.096;2023-08-17T13:07:16;35.50;1.00
8664;DHT22;4369;47.842;13.096;2023-08-17T13:09:43;36.20;1.00
8664;DHT22;4369;47.842;13.096;2023-08-17T13:12:12;36.90;1.00
8664;DHT22;4369;47.842;13.096;2023-08-17T13:14:38;38.10;1.00
8664;DHT22;4369;47.842;13.096;2023-08-17T13:17:07;39.60;1.00
8664;DHT22;4369;47.842;13.096;2023-08-17T13:19:34;40.90;1.00
8664;DHT22;4369;47.842;13.096;2023-08-17T13:22:00;43.00;1.00
8664;DHT22;4369;47.842;13.096;2023-08-17T13:24:29;44.30;1.00
8664;DHT22;4369;47.842;13.096;2023-08-17T13:26:55;45.80;1.00
8664;DHT22;4369;47.842;13.096;2023-08-17T13:29:23;46.80;1.00
8664;DHT22;4369;47.842;13.096;2023-08-17T13:31:49;48.20;1.00
8664;DHT22;4369;47.842;13.096;2023-08-17T13:34:18;49.30;1.00
8664;DHT22;4369;47.842;13.096;2023-08-17T13:36:44;51.00;1.00
8664;DHT22;4369;47.842;13.096;2023-08-17T13:39:11;52.20;1.00
8664;DHT22;4369;47.842;13.096;2023-08-17T13:41:38;53.40;1.00
8664;DHT22;4369;47.842;13.096;2023-08-17T13:44:06;54.20;1.00
8664;DHT22;4369;47.842;13.096;2023-08-17T13:46:33;54.50;1.00
8664;DHT22;4369;47.842;13.096;2023-08-17T13:48:59;54.90;1.00
8664;DHT22;4369;47.842;13.096;2023-08-17T13:51:28;55.50;1.00
8664;DHT22;4369;47.842;13.096;2023-08-17T13:53:54;55.60;1.00
8664;DHT22;4369;47.842;13.096;2023-08-17T13:56:21;56.20;1.00
8664;DHT22;4369;47.842;13.096;2023-08-17T13:58:48;56.30;1.00
8664;DHT22;4369;47.842;13.096;2023-08-17T14:01:15;56.60;1.00
8664;DHT22;4369;47.842;13.096;2023-08-17T14:03:42;57.10;1.00
8664;DHT22;4369;47.842;13.096;2023-08-17T14:06:09;57.00;1.00
8664;DHT22;4369;47.842;13.096;2023-08-17T14:08:37;57.10;1.00
8664;DHT22;4369;47.842;13.096;2023-08-17T14:11:04;56.90;1.00
8664;DHT22;4369;47.842;13.096;2023-08-17T14:13:32;56.40;1.00
8664;DHT22;4369;47.842;13.096;2023-08-17T14:15:59;56.70;1.00
8664;DHT22;4369;47.842;13.096;2023-08-17T14:18:26;57.50;1.00
8664;DHT22;4369;47.842;13.096;2023-08-17T14:20:53;56.30;1.00
8664;DHT22;4369;47.842;13.096;2023-08-17T14:23:20;56.20;1.00
8664;DHT22;4369;47.842;13.096;2023-08-17T14:25:48;56.50;1.00
8664;DHT22;4369;47.842;13.096;2023-08-17T14:28:17;56.50;1.00
8664;DHT22;4369;47.842;13.096;2023-08-17T14:30:44;56.80;1.00
8664;DHT22;4369;47.842;13.096;2023-08-17T14:33:11;56.30;1.00
8664;DHT22;4369;47.842;13.096;2023-08-17T14:35:38;56.20;1.00
8664;DHT22;4369;47.842;13.096;2023-08-17T14:38:05;56.20;1.00
8664;DHT22;4369;47.842;13.096;2023-08-17T14:40:34;55.90;1.00
8664;DHT22;4369;47.842;13.096;2023-08-17T14:43:03;55.00;1.00
8664;DHT22;4369;47.842;13.096;2023-08-17T14:45:30;53.70;1.00
8664;DHT22;4369;47.842;13.096;2023-08-17T14:47:57;53.40;1.00
8664;DHT22;4369;47.842;13.096;2023-08-17T14:50:24;52.50;1.00
8664;DHT22;4369;47.842;13.096;2023-08-17T14:52:51;51.90;1.00
8664;DHT22;4369;47.842;13.096;2023-08-17T14:55:18;51.20;1.00
8664;DHT22;4369;47.842;13.096;2023-08-17T14:57:45;50.70;1.00
8664;DHT22;4369;47.842;13.096;2023-08-17T15:00:14;50.20;1.00
8664;DHT22;4369;47.842;13.096;2023-08-17T15:02:41;49.70;1.00
8664;DHT22;4369;47.842;13.096;2023-08-17T15:05:08;49.90;1.00
8664;DHT22;4369;47.842;13.096;2023-08-17T15:07:35;49.20;1.00
8664;DHT22;4369;47.842;13.096;2023-08-17T15:10:02;48.30;1.00
8664;DHT22;4369;47.842;13.096;2023-08-17T15:12:29;48.30;1.00
8664;DHT22;4369;47.842;13.096;2023-08-17T15:14:56;47.40;1.00
8664;DHT22;4369;47.842;13.096;2023-08-17T15:17:24;46.30;1.00
8664;DHT22;4369;47.842;13.096;2023-08-17T15:19:51;44.60;1.00
8664;DHT22;4369;47.842;13.096;2023-08-17T15:22:18;43.80;1.00
8664;DHT22;4369;47.842;13.096;2023-08-17T15:24:45;42.90;1.00
8664;DHT22;4369;47.842;13.096;2023-08-17T15:27:12;42.10;1.00
8664;DHT22;4369;47.842;13.096;2023-08-17T15:29:39;41.80;1.00
8664;DHT22;4369;47.842;13.096;2023-08-17T15:32:06;42.20;1.00
8664;DHT22;4369;47.842;13.096;2023-08-17T15:34:35;41.60;1.00
8664;DHT22;4369;47.842;13.096;2023-08-17T15:37:02;40.70;1.00
8664;DHT22;4369;47.842;13.096;2023-08-17T15:39:29;39.90;1.00
8664;DHT22;4369;47.842;13.096;2023-08-17T15:41:56;39.90;1.00
8664;DHT22;4369;47.842;13.096;2023-08-17T15:44:23;39.90;1.00
8664;DHT22;4369;47.842;13.096;2023-08-17T15:46:50;39.20;1.00
8664;DHT22;4369;47.842;13.096;2023-08-17T15:49:18;38.90;1.00
8664;DHT22;4369;47.842;13.096;2023-08-17T15:51:46;38.50;1.00
8664;DHT22;4369;47.842;13.096;2023-08-17T15:54:13;38.30;1.00
8664;DHT22;4369;47.842;13.096;2023-08-17T15:56:40;38.20;1.00